Blue Ridge Highway — 3FEY4 — position and weather

sailwx.info

Track history (hours):
 
Tides and Currents Weather Stations Pressure Air Temp Water Temp Dewpoint Dewpoint Depression Visibility Wind Speed Wind Dir Waves Ship Positions

Blue Ridge Highway

Last reported at 2016-Apr-24 16:33 UTC. Time now 2016-May-01 17:26 UTC.
Position S 26°56' E 153°49'.

Length 180 m; draft 8 m.

Type: Cargo ship. MMSI: 355558000.

Date/timePositionNaut miles runAvg speedWind from/ knotsBaromVisibWave heightAir tempDewpointWater temp
2016-Apr-24 16:33S 26°56' E 153°49'1815.9
2016-Apr-24 15:25S 27°14' E 153°49'1515.6
2016-Apr-24 14:28S 27°29' E 153°50'1415.6
2016-Apr-24 13:33S 27°43' E 153°52'1715.5
2016-Apr-24 12:28S 27°59' E 153°51'15015.0
2016-Apr-24 02:31S 30°27' E 153°23'12915.5
2016-Apr-23 18:09S 32°32' E 152°42'1017.7
2016-Apr-23 17:33S 32°41' E 152°37'1817.7
2016-Apr-23 16:33S 32°58' E 152°29'1717.2
2016-Apr-23 15:33S 33°14' E 152°21'27216.9
2016-Apr-22 23:32S 37°24' E 150°13'1818.1
2016-Apr-22 22:33S 37°40' E 150°04'1817.3
2016-Apr-22 21:33S 37°51' E 149°47'4117.0
2016-Apr-22 19:08S 38°16' E 149°06'1017.1
2016-Apr-22 18:33S 38°22' E 148°56'1717.1
2016-Apr-22 17:32S 38°33' E 148°38'8216.5
2016-Apr-22 12:33S 39°08' E 147°03'1616.2
2016-Apr-22 11:33S 39°14' E 146°43'1616.2
2016-Apr-22 10:33S 39°17' E 146°23'1716.6
2016-Apr-22 09:33S 39°16' E 146°01'1716.9
2016-Apr-22 08:33S 39°14' E 145°40'15216.5
2016-Apr-21 23:21S 38°48' E 142°27'1316.4
2016-Apr-21 22:33S 38°44' E 142°11'1716.4
2016-Apr-21 21:32S 38°40' E 141°50'4916.5
2016-Apr-21 18:33S 38°20' E 140°52'2016.4
2016-Apr-21 17:19S 38°11' E 140°29'  
2016-Apr-19 01:33S 38°32' E 141°22'1616.4
2016-Apr-19 00:33S 38°38' E 141°42'1616.3
2016-Apr-18 23:33S 38°42' E 142°02'1616.2
2016-Apr-18 22:33S 38°46' E 142°22'1616.3
2016-Apr-18 21:33S 38°51' E 142°42'1616.2
2016-Apr-18 20:32S 38°55' E 143°02'1715.9
2016-Apr-18 19:30S 38°60' E 143°23'1313.9
2016-Apr-18 18:33S 38°56' E 143°39'102 3.9
2016-Apr-17 16:30S 39°01' E 145°50'1616.9
2016-Apr-17 15:34S 39°09' E 146°08'1615.6
2016-Apr-17 14:34S 39°10' E 146°28'1616.2
2016-Apr-17 13:34S 39°05' E 146°48'1616.2
2016-Apr-17 12:34S 38°60' E 147°07'1616.3
2016-Apr-17 11:33S 38°55' E 147°27'6616.6
2016-Apr-17 07:33S 38°26' E 148°44'1616.1
2016-Apr-17 06:33S 38°16' E 149°01'3316.3
2016-Apr-17 04:34S 37°57' E 149°34'1916.6
2016-Apr-17 03:24S 37°46' E 149°54'1415.6
2016-Apr-17 02:30S 37°36' E 150°06'1516.3
2016-Apr-17 01:33S 37°21' E 150°12'202 7.5
2016-Apr-15 22:31S 34°07' E 151°18'1816.4
2016-Apr-15 21:26S 33°54' E 151°33'1516.4
2016-Apr-15 20:31S 33°42' E 151°43'1616.1
2016-Apr-15 19:31S 33°29' E 151°54'1516.1
2016-Apr-15 18:34S 33°16' E 152°05'1616.1
2016-Apr-15 17:33S 33°03' E 152°16'1716.7
2016-Apr-15 16:33S 32°49' E 152°27'1616.4
2016-Apr-15 15:33S 32°35' E 152°38'3816.7
2016-Apr-15 13:16S 31°60' E 152°54'23817.3
2016-Apr-14 23:33S 28°07' E 153°47'1717.1
2016-Apr-14 22:33S 27°50' E 153°45'1717.1
2016-Apr-14 21:33S 27°33' E 153°43'1716.8
2016-Apr-14 20:33S 27°16' E 153°39'1615.8
2016-Apr-14 19:33S 27°01' E 153°34'1414.2
2016-Apr-14 18:33S 26°50' E 153°23'11 9.2
2016-Apr-14 17:18S 26°47' E 153°11'1013.3
2016-Apr-14 16:33S 26°56' E 153°13'  
Track history (hours):
 
Tides and Currents Weather Stations Pressure Air Temp Water Temp Dewpoint Dewpoint Depression Visibility Wind Speed Wind Dir Waves Ship Positions

Blue Ridge Highway

Last reported at 2016-Apr-24 16:33 UTC. Time now 2016-May-01 17:26 UTC.
Position S 26°56' E 153°49'.

Length 180 m; draft 8 m.

Type: Cargo ship. MMSI: 355558000.

Date/timePositionNaut miles runAvg speedWind from/ knotsBaromVisibWave heightAir tempDewpointWater temp
2016-Apr-24 16:33S 26°56' E 153°49'1815.9
2016-Apr-24 15:25S 27°14' E 153°49'1515.6
2016-Apr-24 14:28S 27°29' E 153°50'1415.6
2016-Apr-24 13:33S 27°43' E 153°52'1715.5
2016-Apr-24 12:28S 27°59' E 153°51'15015.0
2016-Apr-24 02:31S 30°27' E 153°23'12915.5
2016-Apr-23 18:09S 32°32' E 152°42'1017.7
2016-Apr-23 17:33S 32°41' E 152°37'1817.7
2016-Apr-23 16:33S 32°58' E 152°29'1717.2
2016-Apr-23 15:33S 33°14' E 152°21'27216.9
2016-Apr-22 23:32S 37°24' E 150°13'1818.1
2016-Apr-22 22:33S 37°40' E 150°04'1817.3
2016-Apr-22 21:33S 37°51' E 149°47'4117.0
2016-Apr-22 19:08S 38°16' E 149°06'1017.1
2016-Apr-22 18:33S 38°22' E 148°56'1717.1
2016-Apr-22 17:32S 38°33' E 148°38'8216.5
2016-Apr-22 12:33S 39°08' E 147°03'1616.2
2016-Apr-22 11:33S 39°14' E 146°43'1616.2
2016-Apr-22 10:33S 39°17' E 146°23'1716.6
2016-Apr-22 09:33S 39°16' E 146°01'1716.9
2016-Apr-22 08:33S 39°14' E 145°40'15216.5
2016-Apr-21 23:21S 38°48' E 142°27'1316.4
2016-Apr-21 22:33S 38°44' E 142°11'1716.4
2016-Apr-21 21:32S 38°40' E 141°50'4916.5
2016-Apr-21 18:33S 38°20' E 140°52'2016.4
2016-Apr-21 17:19S 38°11' E 140°29'  
2016-Apr-19 01:33S 38°32' E 141°22'1616.4
2016-Apr-19 00:33S 38°38' E 141°42'1616.3
2016-Apr-18 23:33S 38°42' E 142°02'1616.2
2016-Apr-18 22:33S 38°46' E 142°22'1616.3
2016-Apr-18 21:33S 38°51' E 142°42'1616.2
2016-Apr-18 20:32S 38°55' E 143°02'1715.9
2016-Apr-18 19:30S 38°60' E 143°23'1313.9
2016-Apr-18 18:33S 38°56' E 143°39'102 3.9
2016-Apr-17 16:30S 39°01' E 145°50'1616.9
2016-Apr-17 15:34S 39°09' E 146°08'1615.6
2016-Apr-17 14:34S 39°10' E 146°28'1616.2
2016-Apr-17 13:34S 39°05' E 146°48'1616.2
2016-Apr-17 12:34S 38°60' E 147°07'1616.3
2016-Apr-17 11:33S 38°55' E 147°27'6616.6
2016-Apr-17 07:33S 38°26' E 148°44'1616.1
2016-Apr-17 06:33S 38°16' E 149°01'3316.3
2016-Apr-17 04:34S 37°57' E 149°34'1916.6
2016-Apr-17 03:24S 37°46' E 149°54'1415.6
2016-Apr-17 02:30S 37°36' E 150°06'1516.3
2016-Apr-17 01:33S 37°21' E 150°12'202 7.5
2016-Apr-15 22:31S 34°07' E 151°18'1816.4
2016-Apr-15 21:26S 33°54' E 151°33'1516.4
2016-Apr-15 20:31S 33°42' E 151°43'1616.1
2016-Apr-15 19:31S 33°29' E 151°54'1516.1
2016-Apr-15 18:34S 33°16' E 152°05'1616.1
2016-Apr-15 17:33S 33°03' E 152°16'1716.7
2016-Apr-15 16:33S 32°49' E 152°27'1616.4
2016-Apr-15 15:33S 32°35' E 152°38'3816.7
2016-Apr-15 13:16S 31°60' E 152°54'23817.3
2016-Apr-14 23:33S 28°07' E 153°47'1717.1
2016-Apr-14 22:33S 27°50' E 153°45'1717.1
2016-Apr-14 21:33S 27°33' E 153°43'1716.8
2016-Apr-14 20:33S 27°16' E 153°39'1615.8
2016-Apr-14 19:33S 27°01' E 153°34'1414.2
2016-Apr-14 18:33S 26°50' E 153°23'11 9.2
2016-Apr-14 17:18S 26°47' E 153°11'1013.3
2016-Apr-14 16:33S 26°56' E 153°13'  

Dump ship's entire track history